Skip Navigation LinksHome page > Weather > Current weather Skip Navigation Links

Current Weather

Philadelphia Intl, Philadelphia

For information only: do not use for flight planning or navigation.
Latest weather
Observation time Thursday, November 21, 2019 4:54 PM EST
Local time Thursday, November 21, 2019 5:30 PM EST
Flight conditions Visual Meteorological Conditions
Winds
Wind direction South (190°)
Wind speed 7 mph
Visibility 10 mi.
Sky condition
Ceiling 27,000 ft. broken clouds
Cloud layer scattered clouds 20,000 ft.
Cloud layer broken clouds 27,000 ft.
Temperature 50°F
Dewpoint 32°F
Altimeter 30.12 in.Hg
Derived measurements
Relative humidity 50%
Wind chill 47°F
Density altitude -693 ft.
Sea-level pressure 30.12 in.Hg
Remarks
System requires maintenance.
Automated weather observing station with precipitation discriminator.
METAR KPHL 212154Z 19006KT 10SM SCT200 BKN270 10/00 A3012 RMK AO2 SLP200 T01000000 $

Settings

Location code

InnerDrive.Weather 4.0.6770.0 Release CLR 4.0.30319.42000
Copyright ©2018 Inner Drive Technology. All rights reserved. Portions Copyright ©1986-2018 David Braverman.

Find weather

Site navigation


Skip Navigation Links

Place info

Page info

PayPal - The safer, easier way to pay online!

Return home.

Copyright ©2019 Inner Drive Technology. Purveyors of fine, hand-crafted computer software. Page printed 2019-11-21T22:30:59 UTC.